createdAt,value
2018-02-08T00:02:13.407Z,4.57
2018-02-08T00:04:40.500Z,5.27
2018-02-08T00:07:13.875Z,4.33
2018-02-08T00:09:40.244Z,4.27
2018-02-08T00:12:06.611Z,4.27
2018-02-08T00:14:32.971Z,4.83
2018-02-08T00:17:00.087Z,4.70
2018-02-08T00:19:26.438Z,5.13
2018-02-08T00:21:52.807Z,4.73
2018-02-08T00:24:19.922Z,4.80
2018-02-08T00:26:53.199Z,4.60
2018-02-08T00:29:19.544Z,4.90
2018-02-08T00:31:45.908Z,4.73
2018-02-08T00:34:12.321Z,5.10
2018-02-08T00:36:38.703Z,4.47
2018-02-08T00:39:05.796Z,5.10
2018-02-08T00:41:32.152Z,4.80
2018-02-08T00:43:58.532Z,5.07
2018-02-08T00:46:24.900Z,4.93
2018-02-08T00:48:51.246Z,4.83
2018-02-08T00:51:17.602Z,5.40
2018-02-08T00:53:43.975Z,5.07
2018-02-08T00:56:11.098Z,5.00
2018-02-08T00:58:37.444Z,5.30
2018-02-08T01:01:03.805Z,4.43
2018-02-08T01:03:30.911Z,5.10
2018-02-08T01:05:57.267Z,5.60
2018-02-08T01:08:23.607Z,4.50
2018-02-08T01:10:49.977Z,5.23
2018-02-08T01:13:16.316Z,5.17
2018-02-08T01:15:42.684Z,5.23
2018-02-08T01:18:09.032Z,5.10
2018-02-08T01:20:35.419Z,5.23
2018-02-08T01:23:02.558Z,5.10
2018-02-08T01:25:29.652Z,5.40
2018-02-08T01:27:56.018Z,5.20
2018-02-08T01:30:22.425Z,5.60
2018-02-08T01:32:48.791Z,5.27
2018-02-08T01:35:15.148Z,5.40
2018-02-08T01:37:41.498Z,5.50
2018-02-08T01:40:08.631Z,5.30
2018-02-08T01:42:35.000Z,5.10
2018-02-08T01:45:02.112Z,5.43
2018-02-08T01:47:28.496Z,5.00
2018-02-08T01:49:55.585Z,5.30
2018-02-08T01:52:21.932Z,5.70
2018-02-08T01:54:48.314Z,5.97
2018-02-08T01:57:15.427Z,5.30
2018-02-08T01:59:41.787Z,5.27
2018-02-08T02:02:08.140Z,4.80
2018-02-08T02:04:35.238Z,4.97
2018-02-08T02:07:01.589Z,4.87
2018-02-08T02:09:27.968Z,5.20
2018-02-08T02:11:55.076Z,5.30
2018-02-08T02:14:21.447Z,5.60
2018-02-08T02:16:47.811Z,5.57
2018-02-08T02:19:14.935Z,5.73
2018-02-08T02:21:41.304Z,5.43
2018-02-08T02:24:08.494Z,5.37
2018-02-08T02:26:34.839Z,6.00
2018-02-08T02:29:01.206Z,5.67
2018-02-08T02:31:27.592Z,5.93
2018-02-08T02:33:53.951Z,5.40
2018-02-08T02:36:20.336Z,5.80
2018-02-08T02:38:47.425Z,5.57
2018-02-08T02:41:13.788Z,5.50
2018-02-08T02:43:40.139Z,5.60
2018-02-08T02:46:06.479Z,5.70
2018-02-08T02:48:32.818Z,5.87
2018-02-08T02:50:59.168Z,5.47
2018-02-08T02:53:26.317Z,5.33
2018-02-08T02:55:53.431Z,5.60
2018-02-08T02:58:19.768Z,5.60
2018-02-08T03:00:46.115Z,6.20
2018-02-08T03:03:12.491Z,5.60
2018-02-08T03:05:39.602Z,5.47
2018-02-08T03:08:05.952Z,5.93
2018-02-08T03:10:32.291Z,5.90
2018-02-08T03:12:58.647Z,5.73
2018-02-08T03:15:25.803Z,5.50
2018-02-08T03:17:52.891Z,5.67
2018-02-08T03:20:19.261Z,5.60
2018-02-08T03:22:45.624Z,5.43
2018-02-08T03:25:11.972Z,5.30
2018-02-08T03:27:39.059Z,5.40
2018-02-08T03:30:05.430Z,6.17
2018-02-08T03:32:31.782Z,5.63
2018-02-08T03:34:58.158Z,5.73
2018-02-08T03:37:24.583Z,5.60
2018-02-08T03:39:51.726Z,5.87
2018-02-08T03:42:18.801Z,5.80
2018-02-08T03:44:45.180Z,6.00
2018-02-08T03:47:11.550Z,5.77
2018-02-08T03:49:38.635Z,5.30
2018-02-08T03:52:04.984Z,5.70
2018-02-08T03:54:31.336Z,5.40
2018-02-08T03:56:57.695Z,5.57
2018-02-08T03:59:24.073Z,6.10
2018-02-08T04:01:50.521Z,6.27
2018-02-08T04:04:16.868Z,5.87
2018-02-08T04:06:43.235Z,5.27
2018-02-08T04:09:09.583Z,5.73
2018-02-08T04:11:35.936Z,6.10
2018-02-08T04:14:03.068Z,5.87
2018-02-08T04:16:40.518Z,5.63
2018-02-08T04:19:06.909Z,5.70
2018-02-08T04:21:33.271Z,5.83
2018-02-08T04:24:00.385Z,5.63
2018-02-08T04:26:26.759Z,6.40
2018-02-08T04:28:53.876Z,6.30
2018-02-08T04:31:20.252Z,5.33
2018-02-08T04:33:47.403Z,6.33
2018-02-08T04:36:14.534Z,5.60
2018-02-08T04:38:59.324Z,5.60
2018-02-08T04:41:44.210Z,5.60
2018-02-08T04:44:29.101Z,5.67
2018-02-08T04:47:13.971Z,5.10
2018-02-08T04:49:40.344Z,5.17
2018-02-08T04:52:06.726Z,5.10
2018-02-08T04:54:33.108Z,4.50
2018-02-08T04:57:00.190Z,4.77
2018-02-08T04:59:26.546Z,3.90
2018-02-08T05:01:52.936Z,4.07
2018-02-08T05:04:20.076Z,4.30
2018-02-08T05:06:47.190Z,3.80
2018-02-08T05:09:13.519Z,4.47
2018-02-08T05:11:39.874Z,4.07
2018-02-08T05:14:06.213Z,4.30
2018-02-08T05:16:32.571Z,3.83
2018-02-08T05:18:58.929Z,4.57
2018-02-08T05:21:25.264Z,4.03
2018-02-08T05:23:52.355Z,4.07
2018-02-08T05:26:18.713Z,4.13
2018-02-08T05:28:45.080Z,4.40
2018-02-08T05:31:12.183Z,3.20
2018-02-08T05:33:38.539Z,2.83
2018-02-08T05:36:04.935Z,3.40
2018-02-08T05:38:31.275Z,3.20
2018-02-08T05:40:57.645Z,2.90
2018-02-08T05:43:23.983Z,3.00
2018-02-08T05:45:50.352Z,3.27
2018-02-08T05:48:17.432Z,2.97
2018-02-08T05:50:43.813Z,2.90
2018-02-08T05:53:10.157Z,3.43
2018-02-08T05:55:36.548Z,3.57
2018-02-08T05:58:02.936Z,3.50
2018-02-08T06:00:29.328Z,3.00
2018-02-08T06:02:55.744Z,3.40
2018-02-08T06:05:22.110Z,3.40
2018-02-08T06:07:48.501Z,3.57
2018-02-08T06:10:15.654Z,3.73
2018-02-08T06:12:42.798Z,3.10
2018-02-08T06:15:09.133Z,3.30
2018-02-08T06:17:36.983Z,4.17
2018-02-08T06:20:03.352Z,4.20
2018-02-08T06:22:37.513Z,4.57
2018-02-08T06:25:03.901Z,3.80
2018-02-08T06:27:30.264Z,4.17
2018-02-08T06:29:57.374Z,4.83
2018-02-08T06:32:23.772Z,4.83
2018-02-08T06:34:50.121Z,4.50
2018-02-08T06:37:16.448Z,4.40
2018-02-08T06:39:42.815Z,4.07
2018-02-08T06:42:09.159Z,3.90
2018-02-08T06:44:35.530Z,4.10
2018-02-08T06:47:02.656Z,3.87
2018-02-08T06:49:29.022Z,3.90
2018-02-08T06:51:56.106Z,3.30
2018-02-08T06:54:22.456Z,3.13
2018-02-08T06:56:48.813Z,4.27
2018-02-08T06:59:15.211Z,6.27
2018-02-08T07:01:41.556Z,8.03
2018-02-08T07:04:07.912Z,7.43
2018-02-08T07:06:34.268Z,8.00
2018-02-08T07:09:00.623Z,9.33
2018-02-08T07:11:26.972Z,9.70
2018-02-08T07:13:54.085Z,9.40
2018-02-08T07:16:20.484Z,9.50
2018-02-08T07:18:46.859Z,9.27
2018-02-08T07:21:13.247Z,28.70
2018-02-08T07:23:40.408Z,84.87
2018-02-08T07:26:06.879Z,33.53
2018-02-08T07:28:33.259Z,51.83
2018-02-08T07:30:59.628Z,27.93
2018-02-08T07:33:25.968Z,21.23
2018-02-08T07:35:52.327Z,38.37
2018-02-08T07:38:18.689Z,10.73
2018-02-08T07:40:45.107Z,48.60
2018-02-08T07:43:11.515Z,12.23
2018-02-08T07:45:37.907Z,16.30
2018-02-08T07:48:04.272Z,14.37
2018-02-08T07:50:31.367Z,17.83
2018-02-08T07:52:57.783Z,13.93
2018-02-08T07:55:24.179Z,13.70
2018-02-08T07:57:50.536Z,13.20
2018-02-08T08:00:17.688Z,21.13
2018-02-08T08:02:44.793Z,10.60
2018-02-08T08:05:11.217Z,10.73
2018-02-08T08:07:37.620Z,10.13
2018-02-08T08:10:04.796Z,9.87
2018-02-08T08:12:31.201Z,9.07
2018-02-08T08:14:57.571Z,9.70
2018-02-08T08:17:23.967Z,9.10
2018-02-08T08:19:50.324Z,8.70
2018-02-08T08:22:24.460Z,8.97
2018-02-08T08:24:50.868Z,9.60
2018-02-08T08:27:17.247Z,8.70
2018-02-08T08:29:43.638Z,8.03
2018-02-08T08:32:10.031Z,7.90
2018-02-08T08:34:36.431Z,8.50
2018-02-08T08:37:03.575Z,7.50
2018-02-08T08:39:30.702Z,8.23
2018-02-08T08:41:57.086Z,7.30
2018-02-08T08:44:23.587Z,8.27
2018-02-08T08:46:50.713Z,6.37
2018-02-08T08:49:17.114Z,6.53
2018-02-08T08:51:44.236Z,6.70
2018-02-08T08:54:11.323Z,7.10
2018-02-08T08:56:38.452Z,6.70
2018-02-08T08:59:04.832Z,6.17
2018-02-08T09:01:31.198Z,6.90
2018-02-08T09:03:57.669Z,6.93
2018-02-08T09:06:24.019Z,7.10
2018-02-08T09:08:51.120Z,6.63
2018-02-08T09:11:17.499Z,6.57
2018-02-08T09:13:43.921Z,6.40
2018-02-08T09:16:11.861Z,6.40
2018-02-08T09:18:38.208Z,6.17
2018-02-08T09:21:04.662Z,6.30
2018-02-08T09:23:31.101Z,6.87
2018-02-08T09:25:57.502Z,6.67
2018-02-08T09:28:23.884Z,6.70
2018-02-08T09:30:50.988Z,6.50
2018-02-08T09:33:17.423Z,6.50
2018-02-08T09:35:43.824Z,6.90
2018-02-08T09:38:10.253Z,6.67
2018-02-08T09:40:36.599Z,6.00
2018-02-08T09:43:03.090Z,5.87
2018-02-08T09:45:29.539Z,6.00
2018-02-08T09:47:55.923Z,5.90
2018-02-08T09:50:23.025Z,6.20
2018-02-08T09:52:49.432Z,6.20
2018-02-08T09:55:15.822Z,5.87
2018-02-08T09:57:42.219Z,5.80
2018-02-08T10:00:08.603Z,5.73
2018-02-08T10:02:34.966Z,6.00
2018-02-08T10:05:02.108Z,5.87
2018-02-08T10:07:28.511Z,6.13
2018-02-08T10:09:54.926Z,5.60
2018-02-08T10:12:21.254Z,5.90
2018-02-08T10:14:47.615Z,6.00
2018-02-08T10:17:14.001Z,6.13
2018-02-08T10:19:40.380Z,5.97
2018-02-08T10:22:06.788Z,6.30
2018-02-08T10:24:33.931Z,5.50
2018-02-08T10:27:00.328Z,6.07
2018-02-08T10:29:26.787Z,5.97
2018-02-08T10:31:53.219Z,6.57
2018-02-08T10:34:19.615Z,5.77
2018-02-08T10:36:45.995Z,6.03
2018-02-08T10:39:12.418Z,6.50
2018-02-08T10:41:38.871Z,6.30
2018-02-08T10:44:06.075Z,5.63
2018-02-08T10:46:33.151Z,6.13
2018-02-08T10:48:59.508Z,6.20
2018-02-08T10:51:25.848Z,6.53
2018-02-08T10:53:52.253Z,6.47
2018-02-08T10:56:18.640Z,7.30
2018-02-08T10:58:44.982Z,6.87
2018-02-08T11:01:11.395Z,6.10
2018-02-08T11:03:37.792Z,6.90
2018-02-08T11:06:04.144Z,6.67
2018-02-08T11:08:30.536Z,7.20
2018-02-08T11:10:56.874Z,8.10
2018-02-08T11:13:23.343Z,8.50
2018-02-08T11:15:50.465Z,8.27
2018-02-08T11:18:16.832Z,8.23
2018-02-08T11:20:43.935Z,8.50
2018-02-08T11:23:10.321Z,7.60
2018-02-08T11:25:37.408Z,7.27
2018-02-08T11:28:03.786Z,8.53
2018-02-08T11:30:30.157Z,8.00
2018-02-08T11:32:56.556Z,8.07
2018-02-08T11:35:22.888Z,7.60
2018-02-08T11:37:49.287Z,7.53
2018-02-08T11:40:15.650Z,7.90
2018-02-08T11:42:42.006Z,7.60
2018-02-08T11:45:09.181Z,8.00
2018-02-08T11:47:36.282Z,7.80
2018-02-08T11:50:02.632Z,8.00
2018-02-08T11:52:29.006Z,7.07
2018-02-08T11:54:55.375Z,7.23
2018-02-08T11:57:21.736Z,6.83
2018-02-08T11:59:48.068Z,6.30
2018-02-08T12:02:14.454Z,6.03
2018-02-08T12:04:41.600Z,6.30
2018-02-08T12:07:07.975Z,5.80
2018-02-08T12:09:34.336Z,5.07
2018-02-08T12:12:00.720Z,5.70
2018-02-08T12:14:28.015Z,4.80
2018-02-08T12:16:54.617Z,6.20
2018-02-08T12:19:20.972Z,6.00
2018-02-08T12:21:47.307Z,5.43
2018-02-08T12:24:14.387Z,5.17
2018-02-08T12:26:40.788Z,6.17
2018-02-08T12:29:07.904Z,6.00
2018-02-08T12:31:34.263Z,7.60
2018-02-08T12:34:00.655Z,6.03
2018-02-08T12:36:27.056Z,6.60
2018-02-08T12:38:54.178Z,6.43
2018-02-08T12:41:20.579Z,4.90
2018-02-08T12:43:46.998Z,5.37
2018-02-08T12:46:13.404Z,5.20
2018-02-08T12:48:39.739Z,4.43
2018-02-08T12:51:06.098Z,5.70
2018-02-08T12:53:33.211Z,6.20
2018-02-08T12:56:00.344Z,6.17
2018-02-08T12:58:26.732Z,6.23
2018-02-08T13:00:53.867Z,6.43
2018-02-08T13:03:20.215Z,6.30
2018-02-08T13:05:46.580Z,6.87
2018-02-08T13:08:13.737Z,5.50
2018-02-08T13:10:40.821Z,5.30
2018-02-08T13:13:07.212Z,5.63
2018-02-08T13:15:34.298Z,4.97
2018-02-08T13:18:00.671Z,5.83
2018-02-08T13:20:27.067Z,4.97
2018-02-08T13:22:53.460Z,5.50
2018-02-08T13:25:19.919Z,5.53
2018-02-08T13:27:47.055Z,4.53
2018-02-08T13:30:13.451Z,4.40
2018-02-08T13:32:39.860Z,4.70
2018-02-08T13:35:06.956Z,4.90
2018-02-08T13:37:33.373Z,5.13
2018-02-08T13:43:05.816Z,5.47
2018-02-08T13:45:32.220Z,4.53
2018-02-08T13:51:05.784Z,4.80
2018-02-08T13:53:35.269Z,4.83
2018-02-08T13:59:12.488Z,4.37
2018-02-08T14:01:41.836Z,5.10
2018-02-08T14:04:08.263Z,5.23
2018-02-08T14:06:34.656Z,4.80
2018-02-08T14:09:01.826Z,5.60
2018-02-08T14:11:28.211Z,5.57
2018-02-08T14:13:54.581Z,4.87
2018-02-08T14:16:21.672Z,5.70
2018-02-08T14:18:48.032Z,5.57
2018-02-08T14:21:14.427Z,4.90
2018-02-08T14:23:47.781Z,6.03
2018-02-08T14:26:14.175Z,6.30
2018-02-08T14:28:40.512Z,5.83
2018-02-08T14:31:06.880Z,5.50
2018-02-08T14:33:33.240Z,5.80
2018-02-08T14:36:00.357Z,5.80
2018-02-08T14:38:26.744Z,4.90
2018-02-08T14:40:53.853Z,4.63
2018-02-08T14:43:20.203Z,5.20
2018-02-08T14:45:46.595Z,5.70
2018-02-08T14:48:19.843Z,4.80
2018-02-08T14:50:46.191Z,5.00
2018-02-08T14:53:12.580Z,4.43
2018-02-08T14:55:38.959Z,4.70
2018-02-08T14:58:06.131Z,4.73
2018-02-08T15:00:33.245Z,5.20
2018-02-08T15:02:59.654Z,4.83
2018-02-08T15:05:26.072Z,4.90
2018-02-08T15:07:52.490Z,4.37
2018-02-08T15:10:18.863Z,5.17
2018-02-08T15:12:45.203Z,5.03
2018-02-08T15:15:11.572Z,5.20
2018-02-08T15:17:37.960Z,4.70
2018-02-08T15:20:04.354Z,4.90
2018-02-08T15:22:30.780Z,5.33
2018-02-08T15:24:57.141Z,5.70
2018-02-08T15:27:23.525Z,5.50
2018-02-08T15:29:50.076Z,5.97
2018-02-08T15:32:16.499Z,6.43
2018-02-08T15:34:42.860Z,5.30
2018-02-08T15:37:09.282Z,5.90
2018-02-08T15:39:35.636Z,5.80
2018-02-08T15:42:02.018Z,5.77
2018-02-08T15:44:28.388Z,5.53
2018-02-08T15:46:54.758Z,5.40
2018-02-08T15:49:21.475Z,6.13
2018-02-08T15:51:47.849Z,5.57
2018-02-08T15:54:14.217Z,5.70
2018-02-08T15:56:41.328Z,5.13
2018-02-08T15:59:07.770Z,5.13
2018-02-08T16:01:34.277Z,5.50
2018-02-08T16:04:00.644Z,5.70
2018-02-08T16:06:27.016Z,5.37
2018-02-08T16:08:53.395Z,7.00
2018-02-08T16:11:19.830Z,6.80
2018-02-08T16:13:46.188Z,7.50
2018-02-08T16:16:12.540Z,7.20
2018-02-08T16:18:38.908Z,6.00
2018-02-08T16:21:06.008Z,5.83
2018-02-08T16:23:32.408Z,6.43
2018-02-08T16:25:59.585Z,6.23
2018-02-08T16:28:25.989Z,5.60
2018-02-08T16:30:52.515Z,5.80
2018-02-08T16:33:19.024Z,5.20
2018-02-08T16:35:45.437Z,6.83
2018-02-08T16:38:11.813Z,6.30
2018-02-08T16:40:38.160Z,7.07
2018-02-08T16:43:04.600Z,6.27
2018-02-08T16:45:30.959Z,7.00
2018-02-08T16:47:58.135Z,6.80
2018-02-08T16:50:25.236Z,6.03
2018-02-08T16:52:52.993Z,5.70
2018-02-08T16:55:19.382Z,6.20
2018-02-08T16:57:46.492Z,6.33
2018-02-08T17:00:12.912Z,6.10
2018-02-08T17:02:39.312Z,6.17
2018-02-08T17:05:06.452Z,6.43
2018-02-08T17:07:32.823Z,6.13
2018-02-08T17:09:59.230Z,6.10
2018-02-08T17:12:25.609Z,6.10
2018-02-08T17:14:51.987Z,5.60
2018-02-08T17:17:18.379Z,6.00
2018-02-08T17:19:44.792Z,6.10
2018-02-08T17:22:11.889Z,5.83
2018-02-08T17:24:38.244Z,6.30
2018-02-08T17:27:04.642Z,5.37
2018-02-08T17:29:31.008Z,6.43
2018-02-08T17:31:57.454Z,5.50
2018-02-08T17:34:24.045Z,5.30
2018-02-08T17:36:50.446Z,5.53
2018-02-08T17:39:16.834Z,6.30
2018-02-08T17:41:43.245Z,6.00
2018-02-08T17:44:09.655Z,6.00
2018-02-08T17:46:36.028Z,5.87
2018-02-08T17:49:03.223Z,6.10
2018-02-08T17:51:29.603Z,6.40
2018-02-08T17:53:56.736Z,6.30
2018-02-08T17:56:23.165Z,5.30
2018-02-08T17:58:49.551Z,6.10
2018-02-08T18:01:16.741Z,5.80
2018-02-08T18:03:43.136Z,6.00
2018-02-08T18:06:09.593Z,7.37
2018-02-08T18:08:36.752Z,6.90
2018-02-08T18:11:03.877Z,6.70
2018-02-08T18:13:30.262Z,6.47
2018-02-08T18:15:56.686Z,6.30
2018-02-08T18:18:23.080Z,6.07
2018-02-08T18:20:49.502Z,6.00
2018-02-08T18:23:15.878Z,6.27
2018-02-08T18:25:42.323Z,6.27
2018-02-08T18:28:09.471Z,5.20
2018-02-08T18:30:35.858Z,5.30
2018-02-08T18:33:02.241Z,8.00
2018-02-08T18:35:28.699Z,6.87
2018-02-08T18:37:55.809Z,8.03
2018-02-08T18:40:22.196Z,7.50
2018-02-08T18:42:48.605Z,7.07
2018-02-08T18:45:14.987Z,7.13
2018-02-08T18:47:41.370Z,6.53
2018-02-08T18:50:07.788Z,6.60
2018-02-08T18:52:34.260Z,6.77
2018-02-08T18:55:00.660Z,5.70
2018-02-08T18:57:27.112Z,6.40
2018-02-08T18:59:53.498Z,6.43
2018-02-08T19:02:20.668Z,6.90
2018-02-08T19:04:47.103Z,7.23
2018-02-08T19:07:13.524Z,6.63
2018-02-08T19:09:40.670Z,7.33
2018-02-08T19:12:07.037Z,6.60
2018-02-08T19:14:33.487Z,6.57
2018-02-08T19:16:59.902Z,6.27
2018-02-08T19:19:26.325Z,6.13
2018-02-08T19:21:53.495Z,6.10
2018-02-08T19:24:20.667Z,5.73
2018-02-08T19:26:47.080Z,6.30
2018-02-08T19:29:14.220Z,5.60
2018-02-08T19:31:40.598Z,6.00
2018-02-08T19:34:07.008Z,6.07
2018-02-08T19:36:34.159Z,6.17
2018-02-08T19:39:01.294Z,6.17
2018-02-08T19:41:27.716Z,6.23
2018-02-08T19:43:54.132Z,5.80
2018-02-08T19:46:20.512Z,6.37
2018-02-08T19:48:46.899Z,6.00
2018-02-08T19:51:13.302Z,6.97
2018-02-08T19:53:39.694Z,6.20
2018-02-08T19:56:06.160Z,6.10
2018-02-08T19:58:32.559Z,6.40
2018-02-08T20:00:58.960Z,7.07
2018-02-08T20:03:26.140Z,6.07
2018-02-08T20:05:52.542Z,6.77
2018-02-08T20:08:18.940Z,6.50
2018-02-08T20:10:45.369Z,6.73
2018-02-08T20:13:11.844Z,7.87
2018-02-08T20:15:39.020Z,7.30
2018-02-08T20:18:05.433Z,7.50
2018-02-08T20:20:34.536Z,6.70
2018-02-08T20:36:06.164Z,7.60
2018-02-08T20:38:32.575Z,8.57
2018-02-08T20:40:59.280Z,8.00
2018-02-08T20:43:28.660Z,8.47
2018-02-08T20:45:55.125Z,7.87
2018-02-08T20:48:22.243Z,9.40
2018-02-08T20:50:48.601Z,11.20
2018-02-08T20:53:14.982Z,10.80
2018-02-08T20:55:41.380Z,10.83
2018-02-08T20:58:07.806Z,11.60
2018-02-08T21:00:34.221Z,12.00
2018-02-08T21:03:00.599Z,10.93
2018-02-08T21:05:26.996Z,11.80
2018-02-08T21:07:53.354Z,11.40
2018-02-08T21:10:19.730Z,10.60
2018-02-08T21:12:46.874Z,10.63
2018-02-08T21:15:14.019Z,12.00
2018-02-08T21:17:40.393Z,10.70
2018-02-08T21:20:06.865Z,11.03
2018-02-08T21:22:33.273Z,11.47
2018-02-08T21:25:00.405Z,11.50
2018-02-08T21:27:27.555Z,12.90
2018-02-08T21:29:54.717Z,11.63
2018-02-08T21:32:21.880Z,12.53
2018-02-08T21:34:48.288Z,11.33
2018-02-08T21:37:14.722Z,11.67
2018-02-08T21:39:41.100Z,12.10
2018-02-08T21:42:07.518Z,11.30
2018-02-08T21:44:34.668Z,11.10
2018-02-08T21:47:01.056Z,11.30
2018-02-08T21:49:27.444Z,10.90
2018-02-08T21:51:53.897Z,11.90
2018-02-08T21:54:21.200Z,12.40
2018-02-08T21:56:47.548Z,12.00
2018-02-08T21:59:14.002Z,11.63
2018-02-08T22:01:40.397Z,11.77
2018-02-08T22:04:06.948Z,12.50
2018-02-08T22:06:33.325Z,12.90
2018-02-08T22:08:59.706Z,13.10
2018-02-08T22:11:26.149Z,12.43
2018-02-08T22:13:52.509Z,12.03
2018-02-08T22:16:18.909Z,12.10
2018-02-08T22:18:45.421Z,11.63
2018-02-08T22:21:11.868Z,11.70
2018-02-08T22:23:38.255Z,11.13
2018-02-08T22:26:04.701Z,10.77
2018-02-08T22:28:31.072Z,11.33
2018-02-08T22:30:57.497Z,10.83
2018-02-08T22:33:23.896Z,11.50
2018-02-08T22:35:50.290Z,10.57
2018-02-08T22:38:16.634Z,10.20
2018-02-08T22:40:43.750Z,10.00
2018-02-08T22:43:10.124Z,9.73
2018-02-08T22:45:36.537Z,9.40
2018-02-08T22:48:02.994Z,9.97
2018-02-08T22:50:29.363Z,8.70
2018-02-08T22:52:55.780Z,8.40
2018-02-08T22:55:22.930Z,8.90
2018-02-08T22:57:50.089Z,8.30
2018-02-08T23:00:17.243Z,8.47
2018-02-08T23:02:44.353Z,9.00
2018-02-08T23:05:10.693Z,8.43
2018-02-08T23:07:37.067Z,8.00
2018-02-08T23:10:04.173Z,8.63
2018-02-08T23:12:30.534Z,7.40
2018-02-08T23:14:56.895Z,7.90
2018-02-08T23:17:24.009Z,8.33
2018-02-08T23:19:50.368Z,7.00
2018-02-08T23:22:16.756Z,7.63
2018-02-08T23:24:43.189Z,7.47
2018-02-08T23:27:09.555Z,7.97
2018-02-08T23:29:35.892Z,7.20
2018-02-08T23:32:02.284Z,7.33
2018-02-08T23:34:29.391Z,7.47
2018-02-08T23:36:55.750Z,7.80
2018-02-08T23:39:22.838Z,7.30
2018-02-08T23:41:49.204Z,6.87
2018-02-08T23:44:15.547Z,6.73
2018-02-08T23:46:41.918Z,7.07
2018-02-08T23:49:08.272Z,7.23
2018-02-08T23:51:35.353Z,7.30
2018-02-08T23:54:01.725Z,6.83
2018-02-08T23:56:28.060Z,6.30
2018-02-08T23:58:54.410Z,7.07
